MSC Barbara — HODU — position and weather

sailwx.info

Track history (hours):
 
Tides and Currents Weather Stations Pressure Air Temp Water Temp Dewpoint Dewpoint Depression Visibility Wind Speed Wind Dir Waves Ship Positions

MSC Barbara

Last reported at 2014-Dec-14 15:33 UTC. Time now 2014-Dec-18 00:57 UTC.
Position N 10°01' W 016°60'.

; draft 13.9 m.

Type: Ship. MMSI: 353775000.

Date/timePositionNaut miles runAvg speedWind from/ knotsBaromVisibWave heightAir tempDewpointWater temp
2014-Dec-14 15:33N 10°01' W 016°60'3712.2
2014-Dec-14 12:30N 10°35' W 017°15'  
2014-Dec-07 23:29N 37°32' W 009°18'1516.2
2014-Dec-07 22:33N 37°42' W 009°04'1615.8
2014-Dec-07 21:33N 37°54' W 008°50'2 2.2
2014-Dec-07 20:31N 37°56' W 008°51'0 0.0
2014-Dec-07 19:33N 37°56' W 008°51'0 0.0
2014-Dec-07 18:33N 37°56' W 008°51'0 0.0
2014-Dec-07 17:32N 37°56' W 008°51'0 0.0
2014-Dec-07 16:32N 37°56' W 008°51'0 0.0
2014-Dec-07 15:32N 37°56' W 008°51'0 0.0
2014-Dec-07 14:31N 37°56' W 008°51'0 0.0
2014-Dec-07 13:31N 37°56' W 008°51'0 0.0
2014-Dec-07 12:33N 37°56' W 008°51'0 0.0
2014-Dec-07 11:33N 37°56' W 008°51'0 0.0
2014-Dec-07 10:29N 37°56' W 008°51'0 0.0
2014-Dec-07 09:32N 37°56' W 008°51'0 0.1
2014-Dec-07 08:33N 37°56' W 008°51'3 3.0
2014-Dec-07 07:33N 37°53' W 008°51'8 8.3
2014-Dec-07 06:33N 37°47' W 008°59'1 1.0
2014-Dec-07 05:33N 37°48' W 008°59'1 1.0
2014-Dec-07 04:33N 37°49' W 008°59'1 1.0
2014-Dec-07 03:33N 37°50' W 008°60'1 1.1
2014-Dec-07 02:33N 37°51' W 008°60'3 2.8
2014-Dec-07 01:33N 37°52' W 009°03'7 6.6
2014-Dec-07 00:33N 37°57' W 009°09'7 6.7
2014-Dec-06 23:33N 38°01' W 009°16'7 6.7
2014-Dec-06 22:33N 38°06' W 009°22'7 6.9
2014-Dec-06 21:33N 38°10' W 009°28'7 6.8
2014-Dec-06 20:33N 38°15' W 009°35'8 7.5
2014-Dec-06 19:33N 38°20' W 009°42'10 9.6
2014-Dec-06 18:34N 38°26' W 009°52'9 9.4
2014-Dec-06 17:34N 38°32' W 010°01'1010.1
2014-Dec-06 16:33N 38°41' W 010°07'1010.5
2014-Dec-06 15:33N 38°51' W 010°07'1716.1
2014-Dec-06 14:31N 39°08' W 010°07'  
Track history (hours):
 
Tides and Currents Weather Stations Pressure Air Temp Water Temp Dewpoint Dewpoint Depression Visibility Wind Speed Wind Dir Waves Ship Positions

MSC Barbara

Last reported at 2014-Dec-14 15:33 UTC. Time now 2014-Dec-18 00:57 UTC.
Position N 10°01' W 016°60'.

; draft 13.9 m.

Type: Ship. MMSI: 353775000.

Date/timePositionNaut miles runAvg speedWind from/ knotsBaromVisibWave heightAir tempDewpointWater temp
2014-Dec-14 15:33N 10°01' W 016°60'3712.2
2014-Dec-14 12:30N 10°35' W 017°15'  
2014-Dec-07 23:29N 37°32' W 009°18'1516.2
2014-Dec-07 22:33N 37°42' W 009°04'1615.8
2014-Dec-07 21:33N 37°54' W 008°50'2 2.2
2014-Dec-07 20:31N 37°56' W 008°51'0 0.0
2014-Dec-07 19:33N 37°56' W 008°51'0 0.0
2014-Dec-07 18:33N 37°56' W 008°51'0 0.0
2014-Dec-07 17:32N 37°56' W 008°51'0 0.0
2014-Dec-07 16:32N 37°56' W 008°51'0 0.0
2014-Dec-07 15:32N 37°56' W 008°51'0 0.0
2014-Dec-07 14:31N 37°56' W 008°51'0 0.0
2014-Dec-07 13:31N 37°56' W 008°51'0 0.0
2014-Dec-07 12:33N 37°56' W 008°51'0 0.0
2014-Dec-07 11:33N 37°56' W 008°51'0 0.0
2014-Dec-07 10:29N 37°56' W 008°51'0 0.0
2014-Dec-07 09:32N 37°56' W 008°51'0 0.1
2014-Dec-07 08:33N 37°56' W 008°51'3 3.0
2014-Dec-07 07:33N 37°53' W 008°51'8 8.3
2014-Dec-07 06:33N 37°47' W 008°59'1 1.0
2014-Dec-07 05:33N 37°48' W 008°59'1 1.0
2014-Dec-07 04:33N 37°49' W 008°59'1 1.0
2014-Dec-07 03:33N 37°50' W 008°60'1 1.1
2014-Dec-07 02:33N 37°51' W 008°60'3 2.8
2014-Dec-07 01:33N 37°52' W 009°03'7 6.6
2014-Dec-07 00:33N 37°57' W 009°09'7 6.7
2014-Dec-06 23:33N 38°01' W 009°16'7 6.7
2014-Dec-06 22:33N 38°06' W 009°22'7 6.9
2014-Dec-06 21:33N 38°10' W 009°28'7 6.8
2014-Dec-06 20:33N 38°15' W 009°35'8 7.5
2014-Dec-06 19:33N 38°20' W 009°42'10 9.6
2014-Dec-06 18:34N 38°26' W 009°52'9 9.4
2014-Dec-06 17:34N 38°32' W 010°01'1010.1
2014-Dec-06 16:33N 38°41' W 010°07'1010.5
2014-Dec-06 15:33N 38°51' W 010°07'1716.1
2014-Dec-06 14:31N 39°08' W 010°07'  

Dump ship's entire track history